sensor_id;sensor_type;location;lat;lon;timestamp;P1;durP1;ratioP1;P2;durP2;ratioP2
66587;SDS011;53446;50.076;8.198;2024-01-30T00:00:39;21.63;;;12.20;;
66587;SDS011;53446;50.076;8.198;2024-01-30T00:02:40;23.67;;;12.97;;
66587;SDS011;53446;50.076;8.198;2024-01-30T00:04:40;22.17;;;12.73;;
66587;SDS011;53446;50.076;8.198;2024-01-30T00:06:41;21.13;;;12.80;;
66587;SDS011;53446;50.076;8.198;2024-01-30T00:08:41;21.92;;;11.85;;
66587;SDS011;53446;50.076;8.198;2024-01-30T00:10:41;25.63;;;12.10;;
66587;SDS011;53446;50.076;8.198;2024-01-30T00:12:41;25.23;;;13.83;;
66587;SDS011;53446;50.076;8.198;2024-01-30T00:14:42;20.40;;;11.93;;
66587;SDS011;53446;50.076;8.198;2024-01-30T00:16:45;19.35;;;11.35;;
66587;SDS011;53446;50.076;8.198;2024-01-30T00:18:45;23.13;;;12.20;;
66587;SDS011;53446;50.076;8.198;2024-01-30T00:20:46;20.93;;;11.87;;
66587;SDS011;53446;50.076;8.198;2024-01-30T00:22:46;24.70;;;13.43;;
66587;SDS011;53446;50.076;8.198;2024-01-30T00:24:47;26.42;;;15.73;;
66587;SDS011;53446;50.076;8.198;2024-01-30T00:26:47;29.77;;;16.52;;
66587;SDS011;53446;50.076;8.198;2024-01-30T00:28:47;25.60;;;14.30;;
66587;SDS011;53446;50.076;8.198;2024-01-30T00:30:47;19.97;;;11.20;;
66587;SDS011;53446;50.076;8.198;2024-01-30T00:32:48;27.77;;;13.13;;
66587;SDS011;53446;50.076;8.198;2024-01-30T00:34:48;18.57;;;9.90;;
66587;SDS011;53446;50.076;8.198;2024-01-30T00:36:48;23.17;;;13.10;;
66587;SDS011;53446;50.076;8.198;2024-01-30T00:38:48;22.93;;;12.70;;
66587;SDS011;53446;50.076;8.198;2024-01-30T00:40:49;22.40;;;10.80;;
66587;SDS011;53446;50.076;8.198;2024-01-30T00:42:49;17.13;;;10.03;;
66587;SDS011;53446;50.076;8.198;2024-01-30T00:44:49;20.87;;;11.10;;
66587;SDS011;53446;50.076;8.198;2024-01-30T00:46:50;19.67;;;11.57;;
66587;SDS011;53446;50.076;8.198;2024-01-30T00:48:50;25.80;;;15.13;;
66587;SDS011;53446;50.076;8.198;2024-01-30T00:50:50;29.87;;;15.07;;
66587;SDS011;53446;50.076;8.198;2024-01-30T00:52:51;34.43;;;17.23;;
66587;SDS011;53446;50.076;8.198;2024-01-30T00:54:51;23.63;;;12.63;;
66587;SDS011;53446;50.076;8.198;2024-01-30T00:56:51;24.87;;;13.00;;
66587;SDS011;53446;50.076;8.198;2024-01-30T00:58:52;25.90;;;12.70;;
66587;SDS011;53446;50.076;8.198;2024-01-30T01:00:52;19.00;;;10.03;;
66587;SDS011;53446;50.076;8.198;2024-01-30T01:02:52;23.20;;;12.55;;
66587;SDS011;53446;50.076;8.198;2024-01-30T01:04:52;24.47;;;12.53;;
66587;SDS011;53446;50.076;8.198;2024-01-30T01:06:53;23.10;;;11.97;;
66587;SDS011;53446;50.076;8.198;2024-01-30T01:08:53;20.67;;;11.63;;
66587;SDS011;53446;50.076;8.198;2024-01-30T01:10:53;18.80;;;11.20;;
66587;SDS011;53446;50.076;8.198;2024-01-30T01:12:53;24.27;;;13.87;;
66587;SDS011;53446;50.076;8.198;2024-01-30T01:14:54;24.50;;;12.97;;
66587;SDS011;53446;50.076;8.198;2024-01-30T01:16:54;24.53;;;14.93;;
66587;SDS011;53446;50.076;8.198;2024-01-30T01:18:55;23.35;;;13.65;;
66587;SDS011;53446;50.076;8.198;2024-01-30T01:20:55;18.60;;;10.67;;
66587;SDS011;53446;50.076;8.198;2024-01-30T01:22:55;17.67;;;10.93;;
66587;SDS011;53446;50.076;8.198;2024-01-30T01:24:55;19.57;;;11.00;;
66587;SDS011;53446;50.076;8.198;2024-01-30T01:26:56;21.20;;;12.00;;
66587;SDS011;53446;50.076;8.198;2024-01-30T01:28:57;28.98;;;15.65;;
66587;SDS011;53446;50.076;8.198;2024-01-30T01:30:57;21.87;;;12.30;;
66587;SDS011;53446;50.076;8.198;2024-01-30T01:33:05;27.65;;;15.05;;
66587;SDS011;53446;50.076;8.198;2024-01-30T01:35:06;23.73;;;13.52;;
66587;SDS011;53446;50.076;8.198;2024-01-30T01:37:06;25.67;;;15.73;;
66587;SDS011;53446;50.076;8.198;2024-01-30T01:39:07;22.47;;;13.37;;
66587;SDS011;53446;50.076;8.198;2024-01-30T01:41:08;23.00;;;13.65;;
66587;SDS011;53446;50.076;8.198;2024-01-30T01:43:08;20.50;;;12.33;;
66587;SDS011;53446;50.076;8.198;2024-01-30T01:45:09;23.50;;;12.57;;
66587;SDS011;53446;50.076;8.198;2024-01-30T01:47:09;20.17;;;10.60;;
66587;SDS011;53446;50.076;8.198;2024-01-30T01:49:10;23.30;;;13.00;;
66587;SDS011;53446;50.076;8.198;2024-01-30T01:51:11;26.38;;;14.52;;
66587;SDS011;53446;50.076;8.198;2024-01-30T01:53:11;27.55;;;15.20;;
66587;SDS011;53446;50.076;8.198;2024-01-30T01:55:12;28.23;;;14.53;;
66587;SDS011;53446;50.076;8.198;2024-01-30T01:57:13;19.33;;;11.38;;
66587;SDS011;53446;50.076;8.198;2024-01-30T01:59:13;24.70;;;13.27;;
66587;SDS011;53446;50.076;8.198;2024-01-30T02:01:14;22.85;;;12.48;;
66587;SDS011;53446;50.076;8.198;2024-01-30T02:03:17;21.77;;;12.70;;
66587;SDS011;53446;50.076;8.198;2024-01-30T02:05:18;21.08;;;10.10;;
66587;SDS011;53446;50.076;8.198;2024-01-30T02:07:18;22.37;;;12.33;;
66587;SDS011;53446;50.076;8.198;2024-01-30T02:09:19;21.90;;;12.47;;
66587;SDS011;53446;50.076;8.198;2024-01-30T02:11:19;25.00;;;12.90;;
66587;SDS011;53446;50.076;8.198;2024-01-30T02:13:20;23.70;;;13.05;;
66587;SDS011;53446;50.076;8.198;2024-01-30T02:15:21;18.37;;;9.90;;
66587;SDS011;53446;50.076;8.198;2024-01-30T02:17:21;28.33;;;14.73;;
66587;SDS011;53446;50.076;8.198;2024-01-30T02:19:23;23.70;;;12.30;;
66587;SDS011;53446;50.076;8.198;2024-01-30T02:21:23;19.60;;;11.30;;
66587;SDS011;53446;50.076;8.198;2024-01-30T02:23:24;23.88;;;12.60;;
66587;SDS011;53446;50.076;8.198;2024-01-30T02:25:31;23.52;;;12.45;;
66587;SDS011;53446;50.076;8.198;2024-01-30T02:27:33;19.40;;;10.88;;
66587;SDS011;53446;50.076;8.198;2024-01-30T02:29:33;21.33;;;12.07;;
66587;SDS011;53446;50.076;8.198;2024-01-30T02:31:33;26.13;;;13.43;;
66587;SDS011;53446;50.076;8.198;2024-01-30T02:33:33;27.47;;;14.83;;
66587;SDS011;53446;50.076;8.198;2024-01-30T02:35:34;25.40;;;15.03;;
66587;SDS011;53446;50.076;8.198;2024-01-30T02:37:34;22.73;;;12.57;;
66587;SDS011;53446;50.076;8.198;2024-01-30T02:39:34;27.03;;;15.47;;
66587;SDS011;53446;50.076;8.198;2024-01-30T02:41:35;23.90;;;12.57;;
66587;SDS011;53446;50.076;8.198;2024-01-30T02:43:35;23.33;;;12.68;;
66587;SDS011;53446;50.076;8.198;2024-01-30T02:45:35;23.67;;;13.50;;
66587;SDS011;53446;50.076;8.198;2024-01-30T02:47:36;23.10;;;13.17;;
66587;SDS011;53446;50.076;8.198;2024-01-30T02:49:36;26.20;;;13.60;;
66587;SDS011;53446;50.076;8.198;2024-01-30T02:51:37;28.70;;;14.53;;
66587;SDS011;53446;50.076;8.198;2024-01-30T02:53:37;32.00;;;17.08;;
66587;SDS011;53446;50.076;8.198;2024-01-30T02:55:37;29.30;;;15.77;;
66587;SDS011;53446;50.076;8.198;2024-01-30T02:57:38;26.67;;;14.93;;
66587;SDS011;53446;50.076;8.198;2024-01-30T02:59:39;26.48;;;14.75;;
66587;SDS011;53446;50.076;8.198;2024-01-30T03:01:45;39.23;;;19.23;;
66587;SDS011;53446;50.076;8.198;2024-01-30T03:03:46;31.45;;;16.85;;
66587;SDS011;53446;50.076;8.198;2024-01-30T03:05:46;31.17;;;14.97;;
66587;SDS011;53446;50.076;8.198;2024-01-30T03:07:47;34.20;;;16.40;;
66587;SDS011;53446;50.076;8.198;2024-01-30T03:09:47;44.67;;;23.93;;
66587;SDS011;53446;50.076;8.198;2024-01-30T03:11:48;31.75;;;18.50;;
66587;SDS011;53446;50.076;8.198;2024-01-30T03:13:48;36.13;;;19.70;;
66587;SDS011;53446;50.076;8.198;2024-01-30T03:15:48;36.47;;;19.20;;
66587;SDS011;53446;50.076;8.198;2024-01-30T03:17:48;27.23;;;13.13;;
66587;SDS011;53446;50.076;8.198;2024-01-30T03:19:49;21.93;;;12.37;;
66587;SDS011;53446;50.076;8.198;2024-01-30T03:21:49;25.73;;;14.53;;
66587;SDS011;53446;50.076;8.198;2024-01-30T03:23:50;30.83;;;14.63;;
66587;SDS011;53446;50.076;8.198;2024-01-30T03:25:50;29.77;;;15.97;;
66587;SDS011;53446;50.076;8.198;2024-01-30T03:27:50;28.90;;;14.90;;
66587;SDS011;53446;50.076;8.198;2024-01-30T03:29:51;25.65;;;14.20;;
66587;SDS011;53446;50.076;8.198;2024-01-30T03:31:52;30.47;;;15.53;;
66587;SDS011;53446;50.076;8.198;2024-01-30T03:33:52;32.10;;;16.63;;
66587;SDS011;53446;50.076;8.198;2024-01-30T03:35:52;33.03;;;16.23;;
66587;SDS011;53446;50.076;8.198;2024-01-30T03:37:52;32.25;;;16.67;;
66587;SDS011;53446;50.076;8.198;2024-01-30T03:39:53;26.60;;;14.27;;
66587;SDS011;53446;50.076;8.198;2024-01-30T03:41:53;33.20;;;20.17;;
66587;SDS011;53446;50.076;8.198;2024-01-30T03:43:53;34.70;;;18.90;;
66587;SDS011;53446;50.076;8.198;2024-01-30T03:45:53;32.13;;;18.13;;
66587;SDS011;53446;50.076;8.198;2024-01-30T03:47:55;29.48;;;15.95;;
66587;SDS011;53446;50.076;8.198;2024-01-30T03:49:55;27.90;;;14.63;;
66587;SDS011;53446;50.076;8.198;2024-01-30T03:51:55;25.10;;;12.97;;
66587;SDS011;53446;50.076;8.198;2024-01-30T03:53:56;32.30;;;16.27;;
66587;SDS011;53446;50.076;8.198;2024-01-30T03:55:56;27.47;;;13.90;;
66587;SDS011;53446;50.076;8.198;2024-01-30T03:57:56;19.20;;;10.73;;
66587;SDS011;53446;50.076;8.198;2024-01-30T03:59:57;26.43;;;14.17;;
66587;SDS011;53446;50.076;8.198;2024-01-30T04:01:57;25.83;;;13.45;;
66587;SDS011;53446;50.076;8.198;2024-01-30T04:03:57;21.37;;;10.77;;
66587;SDS011;53446;50.076;8.198;2024-01-30T04:05:57;18.93;;;10.87;;
66587;SDS011;53446;50.076;8.198;2024-01-30T04:07:58;24.00;;;12.40;;
66587;SDS011;53446;50.076;8.198;2024-01-30T04:09:58;28.00;;;13.90;;
66587;SDS011;53446;50.076;8.198;2024-01-30T04:11:59;26.20;;;14.23;;
66587;SDS011;53446;50.076;8.198;2024-01-30T04:13:59;28.33;;;15.32;;
66587;SDS011;53446;50.076;8.198;2024-01-30T04:16:00;29.70;;;14.20;;
66587;SDS011;53446;50.076;8.198;2024-01-30T04:18:03;21.50;;;10.95;;
66587;SDS011;53446;50.076;8.198;2024-01-30T04:20:03;26.70;;;14.63;;
66587;SDS011;53446;50.076;8.198;2024-01-30T04:22:05;26.80;;;14.20;;
66587;SDS011;53446;50.076;8.198;2024-01-30T04:24:05;28.40;;;13.80;;
66587;SDS011;53446;50.076;8.198;2024-01-30T04:26:05;21.53;;;12.47;;
66587;SDS011;53446;50.076;8.198;2024-01-30T04:28:06;35.73;;;21.73;;
66587;SDS011;53446;50.076;8.198;2024-01-30T04:30:06;35.37;;;22.37;;
66587;SDS011;53446;50.076;8.198;2024-01-30T04:32:07;43.08;;;26.75;;
66587;SDS011;53446;50.076;8.198;2024-01-30T04:34:09;40.38;;;23.17;;
66587;SDS011;53446;50.076;8.198;2024-01-30T04:36:09;44.33;;;23.17;;
66587;SDS011;53446;50.076;8.198;2024-01-30T04:38:10;32.30;;;17.70;;
66587;SDS011;53446;50.076;8.198;2024-01-30T04:40:10;32.37;;;18.50;;
66587;SDS011;53446;50.076;8.198;2024-01-30T04:42:11;33.33;;;17.65;;
66587;SDS011;53446;50.076;8.198;2024-01-30T04:44:11;26.60;;;13.83;;
66587;SDS011;53446;50.076;8.198;2024-01-30T04:46:11;30.83;;;16.77;;
66587;SDS011;53446;50.076;8.198;2024-01-30T04:48:12;25.63;;;13.03;;
66587;SDS011;53446;50.076;8.198;2024-01-30T04:50:12;34.47;;;17.47;;
66587;SDS011;53446;50.076;8.198;2024-01-30T04:52:13;27.10;;;14.38;;
66587;SDS011;53446;50.076;8.198;2024-01-30T04:54:13;25.50;;;14.23;;
66587;SDS011;53446;50.076;8.198;2024-01-30T04:56:13;28.20;;;14.97;;
66587;SDS011;53446;50.076;8.198;2024-01-30T04:58:14;32.00;;;15.57;;
66587;SDS011;53446;50.076;8.198;2024-01-30T05:00:14;26.53;;;15.83;;
66587;SDS011;53446;50.076;8.198;2024-01-30T05:02:15;21.98;;;12.75;;
66587;SDS011;53446;50.076;8.198;2024-01-30T05:04:15;20.30;;;11.10;;
66587;SDS011;53446;50.076;8.198;2024-01-30T05:06:25;26.83;;;14.07;;
66587;SDS011;53446;50.076;8.198;2024-01-30T05:08:26;26.50;;;13.38;;
66587;SDS011;53446;50.076;8.198;2024-01-30T05:10:26;22.77;;;12.50;;
66587;SDS011;53446;50.076;8.198;2024-01-30T05:12:28;28.80;;;15.15;;
66587;SDS011;53446;50.076;8.198;2024-01-30T05:14:29;30.87;;;14.77;;
66587;SDS011;53446;50.076;8.198;2024-01-30T05:16:29;31.00;;;16.80;;
66587;SDS011;53446;50.076;8.198;2024-01-30T05:18:29;30.43;;;17.47;;
66587;SDS011;53446;50.076;8.198;2024-01-30T05:20:29;27.23;;;14.97;;
66587;SDS011;53446;50.076;8.198;2024-01-30T05:22:30;27.48;;;14.80;;
66587;SDS011;53446;50.076;8.198;2024-01-30T05:24:30;27.02;;;14.18;;
66587;SDS011;53446;50.076;8.198;2024-01-30T05:26:30;24.87;;;13.73;;
66587;SDS011;53446;50.076;8.198;2024-01-30T05:28:31;22.80;;;13.07;;
66587;SDS011;53446;50.076;8.198;2024-01-30T05:30:32;19.70;;;10.80;;
66587;SDS011;53446;50.076;8.198;2024-01-30T05:32:32;26.25;;;14.65;;
66587;SDS011;53446;50.076;8.198;2024-01-30T05:34:32;22.10;;;11.97;;
66587;SDS011;53446;50.076;8.198;2024-01-30T05:36:32;21.20;;;11.27;;
66587;SDS011;53446;50.076;8.198;2024-01-30T05:38:33;23.43;;;12.57;;
66587;SDS011;53446;50.076;8.198;2024-01-30T05:40:33;22.47;;;13.03;;
66587;SDS011;53446;50.076;8.198;2024-01-30T05:42:33;24.43;;;12.30;;
66587;SDS011;53446;50.076;8.198;2024-01-30T05:44:34;24.17;;;12.73;;
66587;SDS011;53446;50.076;8.198;2024-01-30T05:46:35;26.10;;;13.60;;
66587;SDS011;53446;50.076;8.198;2024-01-30T05:48:35;24.98;;;14.50;;
66587;SDS011;53446;50.076;8.198;2024-01-30T05:50:35;31.57;;;16.63;;
66587;SDS011;53446;50.076;8.198;2024-01-30T05:52:36;29.00;;;15.20;;
66587;SDS011;53446;50.076;8.198;2024-01-30T05:54:36;28.23;;;15.68;;
66587;SDS011;53446;50.076;8.198;2024-01-30T05:56:36;30.77;;;15.53;;
66587;SDS011;53446;50.076;8.198;2024-01-30T05:58:36;29.33;;;14.80;;
66587;SDS011;53446;50.076;8.198;2024-01-30T06:00:37;36.50;;;20.03;;
66587;SDS011;53446;50.076;8.198;2024-01-30T06:02:38;36.30;;;20.45;;
66587;SDS011;53446;50.076;8.198;2024-01-30T06:04:38;36.15;;;18.45;;
66587;SDS011;53446;50.076;8.198;2024-01-30T06:06:38;28.63;;;15.77;;
66587;SDS011;53446;50.076;8.198;2024-01-30T06:08:39;34.40;;;18.70;;
66587;SDS011;53446;50.076;8.198;2024-01-30T06:10:39;24.20;;;13.60;;
66587;SDS011;53446;50.076;8.198;2024-01-30T06:12:40;23.38;;;13.15;;
66587;SDS011;53446;50.076;8.198;2024-01-30T06:14:40;22.17;;;12.50;;
66587;SDS011;53446;50.076;8.198;2024-01-30T06:16:42;22.35;;;11.95;;
66587;SDS011;53446;50.076;8.198;2024-01-30T06:18:42;26.37;;;12.50;;
66587;SDS011;53446;50.076;8.198;2024-01-30T06:20:42;25.97;;;14.30;;
66587;SDS011;53446;50.076;8.198;2024-01-30T06:22:43;30.57;;;16.23;;
66587;SDS011;53446;50.076;8.198;2024-01-30T06:24:43;26.33;;;14.30;;
66587;SDS011;53446;50.076;8.198;2024-01-30T06:26:48;26.50;;;14.25;;
66587;SDS011;53446;50.076;8.198;2024-01-30T06:28:48;30.10;;;14.57;;
66587;SDS011;53446;50.076;8.198;2024-01-30T06:30:49;31.40;;;15.77;;
66587;SDS011;53446;50.076;8.198;2024-01-30T06:32:49;30.93;;;15.47;;
66587;SDS011;53446;50.076;8.198;2024-01-30T06:34:50;36.92;;;17.95;;
66587;SDS011;53446;50.076;8.198;2024-01-30T06:36:50;41.25;;;21.85;;
66587;SDS011;53446;50.076;8.198;2024-01-30T06:38:50;38.07;;;19.67;;
66587;SDS011;53446;50.076;8.198;2024-01-30T06:40:50;41.23;;;20.57;;
66587;SDS011;53446;50.076;8.198;2024-01-30T06:42:51;39.03;;;19.73;;
66587;SDS011;53446;50.076;8.198;2024-01-30T06:44:51;36.00;;;18.53;;
66587;SDS011;53446;50.076;8.198;2024-01-30T06:46:51;34.27;;;16.97;;
66587;SDS011;53446;50.076;8.198;2024-01-30T06:48:51;28.90;;;14.73;;
66587;SDS011;53446;50.076;8.198;2024-01-30T06:50:54;33.20;;;15.63;;
66587;SDS011;53446;50.076;8.198;2024-01-30T06:52:55;31.25;;;16.33;;
66587;SDS011;53446;50.076;8.198;2024-01-30T06:54:55;36.67;;;18.77;;
66587;SDS011;53446;50.076;8.198;2024-01-30T06:56:55;33.47;;;15.40;;
66587;SDS011;53446;50.076;8.198;2024-01-30T06:58:55;32.77;;;17.07;;
66587;SDS011;53446;50.076;8.198;2024-01-30T07:00:58;23.55;;;12.30;;
66587;SDS011;53446;50.076;8.198;2024-01-30T07:02:58;25.37;;;12.97;;
66587;SDS011;53446;50.076;8.198;2024-01-30T07:04:58;32.53;;;14.97;;
66587;SDS011;53446;50.076;8.198;2024-01-30T07:06:59;31.23;;;15.50;;
66587;SDS011;53446;50.076;8.198;2024-01-30T07:08:59;41.63;;;19.27;;
66587;SDS011;53446;50.076;8.198;2024-01-30T07:10:59;45.70;;;20.70;;
66587;SDS011;53446;50.076;8.198;2024-01-30T07:13:00;36.77;;;18.87;;
66587;SDS011;53446;50.076;8.198;2024-01-30T07:15:00;35.85;;;17.55;;
66587;SDS011;53446;50.076;8.198;2024-01-30T07:17:02;37.33;;;17.20;;
66587;SDS011;53446;50.076;8.198;2024-01-30T07:19:03;36.00;;;18.65;;
66587;SDS011;53446;50.076;8.198;2024-01-30T07:21:03;46.10;;;21.70;;
66587;SDS011;53446;50.076;8.198;2024-01-30T07:23:04;37.20;;;19.33;;
66587;SDS011;53446;50.076;8.198;2024-01-30T07:25:04;39.10;;;19.73;;
66587;SDS011;53446;50.076;8.198;2024-01-30T07:27:05;49.33;;;23.25;;
66587;SDS011;53446;50.076;8.198;2024-01-30T07:29:05;38.37;;;21.00;;
66587;SDS011;53446;50.076;8.198;2024-01-30T07:31:05;40.40;;;19.17;;
66587;SDS011;53446;50.076;8.198;2024-01-30T07:33:06;37.72;;;18.67;;
66587;SDS011;53446;50.076;8.198;2024-01-30T07:35:06;37.67;;;18.30;;
66587;SDS011;53446;50.076;8.198;2024-01-30T07:37:07;41.57;;;20.57;;
66587;SDS011;53446;50.076;8.198;2024-01-30T07:39:08;37.53;;;18.52;;
66587;SDS011;53446;50.076;8.198;2024-01-30T07:41:10;42.78;;;20.70;;
66587;SDS011;53446;50.076;8.198;2024-01-30T07:43:10;45.78;;;20.00;;
66587;SDS011;53446;50.076;8.198;2024-01-30T07:45:10;41.23;;;19.17;;
66587;SDS011;53446;50.076;8.198;2024-01-30T07:47:11;41.53;;;21.27;;
66587;SDS011;53446;50.076;8.198;2024-01-30T07:49:11;39.20;;;19.77;;
66587;SDS011;53446;50.076;8.198;2024-01-30T07:51:11;36.83;;;18.77;;
66587;SDS011;53446;50.076;8.198;2024-01-30T07:53:11;36.93;;;17.83;;
66587;SDS011;53446;50.076;8.198;2024-01-30T07:55:12;35.30;;;18.10;;
66587;SDS011;53446;50.076;8.198;2024-01-30T07:57:12;32.25;;;17.17;;
66587;SDS011;53446;50.076;8.198;2024-01-30T07:59:12;29.27;;;15.47;;
66587;SDS011;53446;50.076;8.198;2024-01-30T08:01:14;28.60;;;16.10;;
66587;SDS011;53446;50.076;8.198;2024-01-30T08:03:15;28.95;;;17.02;;
66587;SDS011;53446;50.076;8.198;2024-01-30T08:05:17;32.22;;;16.40;;
66587;SDS011;53446;50.076;8.198;2024-01-30T08:07:17;30.30;;;15.38;;
66587;SDS011;53446;50.076;8.198;2024-01-30T08:09:18;31.67;;;17.07;;
66587;SDS011;53446;50.076;8.198;2024-01-30T08:11:19;30.00;;;17.27;;
66587;SDS011;53446;50.076;8.198;2024-01-30T08:13:20;32.58;;;16.98;;
66587;SDS011;53446;50.076;8.198;2024-01-30T08:15:20;42.23;;;23.43;;
66587;SDS011;53446;50.076;8.198;2024-01-30T08:17:20;33.73;;;17.67;;
66587;SDS011;53446;50.076;8.198;2024-01-30T08:19:21;28.80;;;16.20;;
66587;SDS011;53446;50.076;8.198;2024-01-30T08:21:21;32.33;;;17.17;;
66587;SDS011;53446;50.076;8.198;2024-01-30T08:23:21;24.37;;;14.33;;
66587;SDS011;53446;50.076;8.198;2024-01-30T08:25:21;28.57;;;16.10;;
66587;SDS011;53446;50.076;8.198;2024-01-30T08:27:22;30.93;;;18.37;;
66587;SDS011;53446;50.076;8.198;2024-01-30T08:29:22;30.17;;;17.20;;
66587;SDS011;53446;50.076;8.198;2024-01-30T08:31:22;28.50;;;16.80;;
66587;SDS011;53446;50.076;8.198;2024-01-30T08:33:22;30.37;;;16.73;;
66587;SDS011;53446;50.076;8.198;2024-01-30T08:35:23;24.23;;;15.03;;
66587;SDS011;53446;50.076;8.198;2024-01-30T08:37:23;23.80;;;13.60;;
66587;SDS011;53446;50.076;8.198;2024-01-30T08:39:23;27.07;;;15.73;;
66587;SDS011;53446;50.076;8.198;2024-01-30T08:41:24;24.43;;;15.37;;
66587;SDS011;53446;50.076;8.198;2024-01-30T08:43:24;32.77;;;16.70;;
66587;SDS011;53446;50.076;8.198;2024-01-30T08:45:24;33.73;;;16.30;;
66587;SDS011;53446;50.076;8.198;2024-01-30T08:47:25;27.90;;;15.53;;
66587;SDS011;53446;50.076;8.198;2024-01-30T08:49:25;30.60;;;16.33;;
66587;SDS011;53446;50.076;8.198;2024-01-30T08:51:25;30.50;;;16.87;;
66587;SDS011;53446;50.076;8.198;2024-01-30T08:53:26;27.40;;;15.57;;
66587;SDS011;53446;50.076;8.198;2024-01-30T08:55:26;31.23;;;15.87;;
66587;SDS011;53446;50.076;8.198;2024-01-30T08:57:26;28.90;;;15.93;;
66587;SDS011;53446;50.076;8.198;2024-01-30T08:59:28;28.33;;;16.58;;
66587;SDS011;53446;50.076;8.198;2024-01-30T09:01:29;26.20;;;14.40;;
66587;SDS011;53446;50.076;8.198;2024-01-30T09:03:29;33.07;;;17.13;;
66587;SDS011;53446;50.076;8.198;2024-01-30T09:05:29;31.23;;;16.30;;
66587;SDS011;53446;50.076;8.198;2024-01-30T09:07:29;31.03;;;16.50;;
66587;SDS011;53446;50.076;8.198;2024-01-30T09:09:30;29.55;;;17.20;;
66587;SDS011;53446;50.076;8.198;2024-01-30T09:11:30;26.27;;;14.90;;
66587;SDS011;53446;50.076;8.198;2024-01-30T09:13:31;30.40;;;16.83;;
66587;SDS011;53446;50.076;8.198;2024-01-30T09:15:31;26.20;;;14.97;;
66587;SDS011;53446;50.076;8.198;2024-01-30T09:17:31;24.33;;;14.10;;
66587;SDS011;53446;50.076;8.198;2024-01-30T09:19:33;28.17;;;16.10;;
66587;SDS011;53446;50.076;8.198;2024-01-30T09:21:33;31.03;;;16.37;;
66587;SDS011;53446;50.076;8.198;2024-01-30T09:23:33;31.07;;;17.27;;
66587;SDS011;53446;50.076;8.198;2024-01-30T09:25:34;27.90;;;16.90;;
66587;SDS011;53446;50.076;8.198;2024-01-30T09:27:34;34.23;;;17.30;;
66587;SDS011;53446;50.076;8.198;2024-01-30T09:29:34;28.00;;;14.90;;
66587;SDS011;53446;50.076;8.198;2024-01-30T09:31:36;27.25;;;14.45;;
66587;SDS011;53446;50.076;8.198;2024-01-30T09:33:36;34.45;;;17.10;;
66587;SDS011;53446;50.076;8.198;2024-01-30T09:35:37;28.83;;;16.07;;
66587;SDS011;53446;50.076;8.198;2024-01-30T09:37:37;25.17;;;14.07;;
66587;SDS011;53446;50.076;8.198;2024-01-30T09:39:37;35.83;;;16.07;;
66587;SDS011;53446;50.076;8.198;2024-01-30T09:41:45;27.20;;;16.10;;
66587;SDS011;53446;50.076;8.198;2024-01-30T09:43:49;30.30;;;17.02;;
66587;SDS011;53446;50.076;8.198;2024-01-30T09:45:50;28.88;;;16.02;;
66587;SDS011;53446;50.076;8.198;2024-01-30T09:47:52;29.05;;;16.48;;
66587;SDS011;53446;50.076;8.198;2024-01-30T09:49:52;30.30;;;16.90;;
66587;SDS011;53446;50.076;8.198;2024-01-30T09:51:53;33.50;;;18.10;;
66587;SDS011;53446;50.076;8.198;2024-01-30T09:53:54;37.40;;;20.58;;
66587;SDS011;53446;50.076;8.198;2024-01-30T09:55:55;37.17;;;19.90;;
66587;SDS011;53446;50.076;8.198;2024-01-30T09:57:56;36.53;;;19.90;;
66587;SDS011;53446;50.076;8.198;2024-01-30T09:59:56;37.67;;;19.97;;
66587;SDS011;53446;50.076;8.198;2024-01-30T10:01:57;44.17;;;22.13;;
66587;SDS011;53446;50.076;8.198;2024-01-30T10:03:57;39.37;;;20.97;;
66587;SDS011;53446;50.076;8.198;2024-01-30T10:05:57;33.97;;;19.20;;
66587;SDS011;53446;50.076;8.198;2024-01-30T10:07:59;29.33;;;17.80;;
66587;SDS011;53446;50.076;8.198;2024-01-30T10:09:59;33.93;;;19.50;;
66587;SDS011;53446;50.076;8.198;2024-01-30T10:11:59;34.27;;;20.23;;
66587;SDS011;53446;50.076;8.198;2024-01-30T10:14:01;42.95;;;23.92;;
66587;SDS011;53446;50.076;8.198;2024-01-30T10:16:02;44.95;;;23.27;;
66587;SDS011;53446;50.076;8.198;2024-01-30T10:18:03;37.30;;;21.50;;
66587;SDS011;53446;50.076;8.198;2024-01-30T10:20:06;38.28;;;21.38;;
66587;SDS011;53446;50.076;8.198;2024-01-30T10:22:07;29.60;;;16.97;;
66587;SDS011;53446;50.076;8.198;2024-01-30T10:24:09;31.83;;;16.70;;
66587;SDS011;53446;50.076;8.198;2024-01-30T10:26:12;30.42;;;18.73;;
66587;SDS011;53446;50.076;8.198;2024-01-30T10:28:13;29.40;;;17.63;;
66587;SDS011;53446;50.076;8.198;2024-01-30T10:30:13;31.63;;;18.37;;
66587;SDS011;53446;50.076;8.198;2024-01-30T10:32:14;29.40;;;17.47;;
66587;SDS011;53446;50.076;8.198;2024-01-30T10:34:15;30.50;;;17.00;;
66587;SDS011;53446;50.076;8.198;2024-01-30T10:36:15;30.20;;;18.67;;
66587;SDS011;53446;50.076;8.198;2024-01-30T10:38:17;36.17;;;21.95;;
66587;SDS011;53446;50.076;8.198;2024-01-30T10:40:20;45.72;;;26.50;;
66587;SDS011;53446;50.076;8.198;2024-01-30T10:42:23;41.20;;;23.58;;
66587;SDS011;53446;50.076;8.198;2024-01-30T10:44:26;36.40;;;20.45;;
66587;SDS011;53446;50.076;8.198;2024-01-30T10:46:33;29.65;;;18.27;;
66587;SDS011;53446;50.076;8.198;2024-01-30T10:48:40;28.05;;;17.45;;
66587;SDS011;53446;50.076;8.198;2024-01-30T10:50:44;25.38;;;16.50;;
66587;SDS011;53446;50.076;8.198;2024-01-30T10:52:45;29.60;;;18.65;;
66587;SDS011;53446;50.076;8.198;2024-01-30T10:54:47;29.58;;;18.80;;
66587;SDS011;53446;50.076;8.198;2024-01-30T10:56:50;28.13;;;18.85;;
66587;SDS011;53446;50.076;8.198;2024-01-30T10:58:51;27.95;;;18.65;;
66587;SDS011;53446;50.076;8.198;2024-01-30T11:00:52;30.20;;;19.23;;
66587;SDS011;53446;50.076;8.198;2024-01-30T11:02:52;29.83;;;19.73;;
66587;SDS011;53446;50.076;8.198;2024-01-30T11:04:57;32.53;;;19.77;;
66587;SDS011;53446;50.076;8.198;2024-01-30T11:06:58;32.50;;;19.00;;
66587;SDS011;53446;50.076;8.198;2024-01-30T11:09:04;30.73;;;18.93;;
66587;SDS011;53446;50.076;8.198;2024-01-30T11:11:09;34.05;;;20.10;;
66587;SDS011;53446;50.076;8.198;2024-01-30T11:13:12;35.10;;;20.13;;
66587;SDS011;53446;50.076;8.198;2024-01-30T11:15:16;34.88;;;21.60;;
66587;SDS011;53446;50.076;8.198;2024-01-30T11:17:17;33.75;;;20.92;;
66587;SDS011;53446;50.076;8.198;2024-01-30T11:19:24;37.43;;;24.27;;
66587;SDS011;53446;50.076;8.198;2024-01-30T11:21:28;37.10;;;23.55;;
66587;SDS011;53446;50.076;8.198;2024-01-30T11:23:28;41.03;;;25.60;;
66587;SDS011;53446;50.076;8.198;2024-01-30T11:25:29;38.38;;;26.38;;
66587;SDS011;53446;50.076;8.198;2024-01-30T11:27:32;34.20;;;24.38;;
66587;SDS011;53446;50.076;8.198;2024-01-30T11:29:32;35.20;;;23.70;;
66587;SDS011;53446;50.076;8.198;2024-01-30T11:31:35;31.83;;;22.67;;
66587;SDS011;53446;50.076;8.198;2024-01-30T11:33:35;31.47;;;20.90;;
66587;SDS011;53446;50.076;8.198;2024-01-30T11:35:36;33.22;;;20.20;;
66587;SDS011;53446;50.076;8.198;2024-01-30T11:37:40;30.37;;;20.87;;
66587;SDS011;53446;50.076;8.198;2024-01-30T11:39:42;35.80;;;21.50;;
66587;SDS011;53446;50.076;8.198;2024-01-30T11:41:45;37.70;;;24.80;;
66587;SDS011;53446;50.076;8.198;2024-01-30T11:43:52;39.00;;;24.48;;
66587;SDS011;53446;50.076;8.198;2024-01-30T11:45:53;49.88;;;29.88;;